createdAt,value
2019-04-25T00:01:08.676Z,10.97
2019-04-25T00:03:38.372Z,13.27
2019-04-25T00:06:07.921Z,10.13
2019-04-25T00:08:37.352Z,7.47
2019-04-25T00:11:07.770Z,9.47
2019-04-25T00:13:37.331Z,11.80
2019-04-25T00:16:07.649Z,12.93
2019-04-25T00:18:36.137Z,10.80
2019-04-25T00:21:13.008Z,11.70
2019-04-25T00:23:43.762Z,10.03
2019-04-25T00:26:41.503Z,11.67
2019-04-25T00:29:13.188Z,18.57
2019-04-25T00:31:43.709Z,13.00
2019-04-25T00:34:12.918Z,15.27
2019-04-25T00:36:43.522Z,10.03
2019-04-25T00:39:11.919Z,10.53
2019-04-25T00:41:43.857Z,9.70
2019-04-25T00:44:12.137Z,11.67
2019-04-25T00:46:43.285Z,9.07
2019-04-25T00:49:12.265Z,19.10
2019-04-25T00:51:42.676Z,15.37
2019-04-25T00:54:11.911Z,9.53
2019-04-25T00:56:43.301Z,12.47
2019-04-25T00:59:16.812Z,15.13
2019-04-25T01:02:16.584Z,11.53
2019-04-25T01:04:45.257Z,8.23
2019-04-25T01:07:13.805Z,10.33
2019-04-25T01:09:43.470Z,12.17
2019-04-25T01:12:13.577Z,16.27
2019-04-25T01:14:42.121Z,11.37
2019-04-25T01:17:11.685Z,13.93
2019-04-25T01:19:40.656Z,13.47
2019-04-25T01:22:09.397Z,16.60
2019-04-25T01:24:37.891Z,14.53
2019-04-25T01:27:08.230Z,15.47
2019-04-25T01:29:36.737Z,18.67
2019-04-25T01:32:07.580Z,29.70
2019-04-25T01:34:54.637Z,11.10
2019-04-25T01:37:51.111Z,15.63
2019-04-25T01:40:39.653Z,21.50
2019-04-25T01:43:29.577Z,15.70
2019-04-25T01:45:58.176Z,17.40
2019-04-25T01:48:26.615Z,13.80
2019-04-25T01:50:55.479Z,18.73
2019-04-25T01:53:24.235Z,19.03
2019-04-25T01:56:00.665Z,16.70
2019-04-25T01:58:23.659Z,15.63
2019-04-25T02:00:54.647Z,17.90
2019-04-25T02:03:27.008Z,16.97
2019-04-25T02:05:54.891Z,19.80
2019-04-25T02:08:23.939Z,19.67
2019-04-25T02:11:03.201Z,19.63
2019-04-25T02:13:33.657Z,18.97
2019-04-25T02:16:05.292Z,16.70
2019-04-25T02:18:34.023Z,13.47
2019-04-25T02:21:04.514Z,13.80
2019-04-25T02:23:34.112Z,22.63
2019-04-25T02:26:13.867Z,24.70
2019-04-25T02:28:33.789Z,19.13
2019-04-25T02:31:07.821Z,18.33
2019-04-25T02:33:34.029Z,18.33
2019-04-25T02:36:08.267Z,21.50
2019-04-25T02:38:34.327Z,17.13
2019-04-25T02:41:08.302Z,20.60
2019-04-25T02:43:35.072Z,19.50
2019-04-25T02:46:26.987Z,24.40
2019-04-25T02:49:28.950Z,20.50
2019-04-25T02:55:39.578Z,22.33
2019-04-25T02:58:10.043Z,19.37
2019-04-25T03:00:51.727Z,22.20
2019-04-25T03:03:09.148Z,23.70
2019-04-25T03:05:37.707Z,24.63
2019-04-25T03:08:09.026Z,19.77
2019-04-25T03:10:36.423Z,32.20
2019-04-25T03:13:09.623Z,22.07
2019-04-25T03:15:36.577Z,25.33
2019-04-25T03:18:09.251Z,25.53
2019-04-25T03:20:44.996Z,22.63
2019-04-25T03:23:35.073Z,18.10
2019-04-25T03:26:06.155Z,24.73
2019-04-25T03:28:35.489Z,22.30
2019-04-25T03:31:10.647Z,19.13
2019-04-25T03:33:37.750Z,20.33
2019-04-25T03:36:05.512Z,16.80
2019-04-25T03:38:35.041Z,14.93
2019-04-25T03:41:04.820Z,23.00
2019-04-25T03:43:33.762Z,21.40
2019-04-25T03:46:04.962Z,14.03
2019-04-25T03:48:36.466Z,21.67
2019-04-25T03:51:05.392Z,25.00
2019-04-25T03:53:34.352Z,17.73
2019-04-25T03:56:04.472Z,20.07
2019-04-25T03:58:33.783Z,22.37
2019-04-25T04:01:03.912Z,24.70
2019-04-25T04:03:33.916Z,15.87
2019-04-25T04:06:04.356Z,18.90
2019-04-25T04:08:35.446Z,19.27
2019-04-25T04:11:05.376Z,19.10
2019-04-25T04:13:34.277Z,16.73
2019-04-25T04:16:04.220Z,16.80
2019-04-25T04:18:54.083Z,23.57
2019-04-25T04:22:00.245Z,23.63
2019-04-25T04:24:36.202Z,21.80
2019-04-25T04:27:14.097Z,20.27
2019-04-25T04:29:43.202Z,18.93
2019-04-25T04:32:12.524Z,20.67
2019-04-25T04:34:45.166Z,28.47
2019-04-25T04:37:14.642Z,17.00
2019-04-25T04:39:43.720Z,23.00
2019-04-25T04:42:14.021Z,24.07
2019-04-25T04:44:43.750Z,23.90
2019-04-25T04:47:14.071Z,21.93
2019-04-25T04:49:43.942Z,25.43
2019-04-25T04:52:14.339Z,22.33
2019-04-25T04:54:43.975Z,19.20
2019-04-25T04:57:23.493Z,23.43
2019-04-25T04:59:43.845Z,27.03
2019-04-25T05:02:33.222Z,17.90
2019-04-25T05:05:30.418Z,19.83
2019-04-25T05:08:01.762Z,20.70
2019-04-25T05:10:30.248Z,21.87
2019-04-25T05:12:58.683Z,13.20
2019-04-25T05:15:27.169Z,20.60
2019-04-25T05:17:55.604Z,20.23
2019-04-25T05:20:24.339Z,16.73
2019-04-25T05:22:54.603Z,19.10
2019-04-25T05:25:24.581Z,16.70
2019-04-25T05:28:02.252Z,23.13
2019-04-25T05:30:29.900Z,20.37
2019-04-25T05:32:58.323Z,18.33
2019-04-25T05:35:26.821Z,23.60
2019-04-25T05:37:55.152Z,17.50
2019-04-25T05:40:24.433Z,19.80
2019-04-25T05:43:07.358Z,18.33
2019-04-25T05:45:35.856Z,22.00
2019-04-25T05:48:05.961Z,24.90
2019-04-25T05:50:34.644Z,24.77
2019-04-25T05:53:04.319Z,16.47
2019-04-25T05:55:34.146Z,25.13
2019-04-25T05:58:03.866Z,17.60
2019-04-25T06:00:34.115Z,22.17
2019-04-25T06:03:03.631Z,17.47
2019-04-25T06:05:33.508Z,22.30
2019-04-25T06:08:04.118Z,26.23
2019-04-25T06:10:39.698Z,12.30
2019-04-25T06:13:16.213Z,19.60
2019-04-25T06:15:46.501Z,21.93
2019-04-25T06:18:24.877Z,18.80
2019-04-25T06:20:54.307Z,19.07
2019-04-25T06:23:41.552Z,18.10
2019-04-25T06:26:23.099Z,22.83
2019-04-25T06:28:52.076Z,23.53
2019-04-25T06:31:11.181Z,21.20
2019-04-25T06:33:39.622Z,28.17
2019-04-25T06:36:08.204Z,23.60
2019-04-25T06:38:36.652Z,19.73
2019-04-25T06:41:05.152Z,23.53
2019-04-25T06:43:34.486Z,21.33
2019-04-25T06:46:21.107Z,20.70
2019-04-25T06:48:57.445Z,19.67
2019-04-25T06:51:54.701Z,24.37
2019-04-25T06:54:25.445Z,17.97
2019-04-25T06:56:53.924Z,24.33
2019-04-25T06:59:24.947Z,23.37
2019-04-25T07:01:54.112Z,18.57
2019-04-25T07:04:26.174Z,25.30
2019-04-25T07:06:53.586Z,19.93
2019-04-25T07:09:24.408Z,23.87
2019-04-25T07:11:53.781Z,20.60
2019-04-25T07:14:25.450Z,14.53
2019-04-25T07:16:53.278Z,18.83
2019-04-25T07:19:21.805Z,19.53
2019-04-25T07:21:50.725Z,18.80
2019-04-25T07:24:19.154Z,19.83
2019-04-25T07:26:56.116Z,18.43
2019-04-25T07:29:33.737Z,19.37
2019-04-25T07:32:32.516Z,19.63
2019-04-25T07:35:01.626Z,21.53
2019-04-25T07:37:30.117Z,17.43
2019-04-25T07:39:58.548Z,19.73
2019-04-25T07:42:27.671Z,27.83
2019-04-25T07:44:56.302Z,19.10
2019-04-25T07:47:26.040Z,19.67
2019-04-25T07:49:55.197Z,19.93
2019-04-25T07:52:23.625Z,21.03
2019-04-25T07:54:53.533Z,17.57
2019-04-25T07:57:23.791Z,26.33
2019-04-25T07:59:53.720Z,24.03
2019-04-25T08:02:23.302Z,22.47
2019-04-25T08:04:51.988Z,22.97
2019-04-25T08:07:20.472Z,19.97
2019-04-25T08:09:48.974Z,18.00
2019-04-25T08:12:17.396Z,23.77
2019-04-25T08:14:51.033Z,22.43
2019-04-25T08:17:39.874Z,26.10
2019-04-25T08:20:09.106Z,23.83
2019-04-25T08:22:50.081Z,18.43
2019-04-25T08:25:07.927Z,21.30
2019-04-25T08:27:36.756Z,28.47
2019-04-25T08:30:05.845Z,18.47
2019-04-25T08:32:35.512Z,20.50
2019-04-25T08:35:04.620Z,18.00
2019-04-25T08:37:34.469Z,24.60
2019-04-25T08:40:04.064Z,18.23
2019-04-25T08:42:35.236Z,16.13
2019-04-25T08:45:04.053Z,19.57
2019-04-25T08:47:33.205Z,19.40
2019-04-25T08:50:34.052Z,18.97
2019-04-25T08:53:01.773Z,16.87
2019-04-25T08:55:47.673Z,19.80
2019-04-25T08:58:28.300Z,19.23
2019-04-25T09:01:19.505Z,20.70
2019-04-25T09:03:53.912Z,23.77
2019-04-25T09:06:24.364Z,21.37
2019-04-25T09:08:54.052Z,22.00
2019-04-25T09:11:24.493Z,21.93
2019-04-25T09:13:53.762Z,17.43
2019-04-25T09:16:23.901Z,17.27
2019-04-25T09:18:53.947Z,18.77
2019-04-25T09:21:23.772Z,18.53
2019-04-25T09:23:53.553Z,15.67
2019-04-25T09:26:24.017Z,19.40
2019-04-25T09:28:53.622Z,15.00
2019-04-25T09:31:23.630Z,18.93
2019-04-25T09:33:54.525Z,24.80
2019-04-25T09:36:24.057Z,17.13
2019-04-25T09:38:55.269Z,17.93
2019-04-25T09:41:23.766Z,20.10
2019-04-25T09:43:55.125Z,17.67
2019-04-25T09:46:30.125Z,25.57
2019-04-25T09:49:19.821Z,19.37
2019-04-25T09:52:16.514Z,26.50
2019-04-25T09:54:53.538Z,20.07
2019-04-25T09:57:36.549Z,17.03
2019-04-25T10:00:07.745Z,21.77
2019-04-25T10:02:36.916Z,16.77
2019-04-25T10:05:05.754Z,19.70
2019-04-25T10:07:34.236Z,17.30
2019-04-25T10:10:03.769Z,14.73
2019-04-25T10:12:34.129Z,19.00
2019-04-25T10:15:23.673Z,19.90
2019-04-25T10:17:52.581Z,19.30
2019-04-25T10:20:21.016Z,12.13
2019-04-25T10:22:49.514Z,18.20
2019-04-25T10:25:19.424Z,25.90
2019-04-25T10:27:49.322Z,22.20
2019-04-25T10:30:23.166Z,26.87
2019-04-25T10:32:50.785Z,23.60
2019-04-25T10:35:20.312Z,24.07
2019-04-25T10:37:48.792Z,22.23
2019-04-25T10:40:17.633Z,20.80
2019-04-25T10:42:48.023Z,19.40
2019-04-25T10:45:23.410Z,21.27
2019-04-25T10:47:46.896Z,19.47
2019-04-25T10:50:15.798Z,22.23
2019-04-25T10:52:45.833Z,20.80
2019-04-25T10:55:14.613Z,27.23
2019-04-25T10:57:44.885Z,22.07
2019-04-25T11:00:35.873Z,22.67
2019-04-25T11:03:24.141Z,16.67
2019-04-25T11:05:54.409Z,18.23
2019-04-25T11:08:24.486Z,25.13
2019-04-25T11:10:54.967Z,19.90
2019-04-25T11:13:24.046Z,16.93
2019-04-25T11:15:52.590Z,21.83
2019-04-25T11:18:21.182Z,17.23
2019-04-25T11:20:50.369Z,20.67
2019-04-25T11:23:19.102Z,23.90
2019-04-25T11:25:47.633Z,22.73
2019-04-25T11:28:16.126Z,21.33
2019-04-25T11:30:46.878Z,19.87
2019-04-25T11:33:16.545Z,24.70
2019-04-25T11:35:47.494Z,28.03
2019-04-25T11:38:20.510Z,22.47
2019-04-25T11:40:56.184Z,23.80
2019-04-25T11:43:24.714Z,20.37
2019-04-25T11:45:55.552Z,22.07
2019-04-25T11:48:23.872Z,26.63
2019-04-25T11:50:55.721Z,21.97
2019-04-25T11:53:24.755Z,25.53
2019-04-25T11:55:53.813Z,22.77
2019-04-25T11:58:23.761Z,28.10
2019-04-25T12:00:53.816Z,29.43
2019-04-25T12:03:22.976Z,26.50
2019-04-25T12:05:53.162Z,18.10
2019-04-25T12:08:21.825Z,21.20
2019-04-25T12:10:50.281Z,25.33
2019-04-25T12:13:18.895Z,27.03
2019-04-25T12:15:47.233Z,25.20
2019-04-25T12:18:15.660Z,24.37
2019-04-25T12:20:44.719Z,24.70
2019-04-25T12:23:14.508Z,20.07
2019-04-25T12:25:45.338Z,16.73
2019-04-25T12:28:14.156Z,23.60
2019-04-25T12:30:43.952Z,32.90
2019-04-25T12:33:21.158Z,23.83
2019-04-25T12:35:43.767Z,20.90
2019-04-25T12:38:14.021Z,23.27
2019-04-25T12:40:43.448Z,22.67
2019-04-25T12:43:13.719Z,23.47
2019-04-25T12:46:00.663Z,19.73
2019-04-25T12:48:29.216Z,27.97
2019-04-25T12:50:58.181Z,20.60
2019-04-25T12:53:26.622Z,19.17
2019-04-25T12:55:56.121Z,21.03
2019-04-25T12:58:24.761Z,20.00
2019-04-25T13:00:58.199Z,20.53
2019-04-25T13:03:24.183Z,24.40
2019-04-25T13:05:54.006Z,20.47
2019-04-25T13:08:24.142Z,19.53
2019-04-25T13:10:54.392Z,23.17
2019-04-25T13:13:24.136Z,19.93
2019-04-25T13:15:53.277Z,20.77
2019-04-25T13:18:21.888Z,19.97
2019-04-25T13:20:50.844Z,24.40
2019-04-25T13:23:19.324Z,23.13
2019-04-25T13:25:47.928Z,27.17
2019-04-25T13:28:38.698Z,25.57
2019-04-25T13:31:41.806Z,20.53
2019-04-25T13:34:17.494Z,23.20
2019-04-25T13:36:46.083Z,17.93
2019-04-25T13:39:18.203Z,29.90
2019-04-25T13:41:46.806Z,24.20
2019-04-25T13:44:15.345Z,24.60
2019-04-25T13:46:44.260Z,23.37
2019-04-25T13:49:14.117Z,26.37
2019-04-25T13:51:42.821Z,21.80
2019-04-25T13:54:13.059Z,21.90
2019-04-25T13:56:43.378Z,20.37
2019-04-25T13:59:12.236Z,16.70
2019-04-25T14:01:40.842Z,21.73
2019-04-25T14:04:10.448Z,26.73
2019-04-25T14:06:39.389Z,22.70
2019-04-25T14:09:13.497Z,20.73
2019-04-25T14:11:41.991Z,23.67
2019-04-25T14:14:10.531Z,25.30
2019-04-25T14:17:03.073Z,25.07
2019-04-25T14:19:54.213Z,22.77
2019-04-25T14:22:23.381Z,21.93
2019-04-25T14:24:53.969Z,25.17
2019-04-25T14:27:24.019Z,33.63
2019-04-25T14:29:53.589Z,27.67
2019-04-25T14:32:26.824Z,22.87
2019-04-25T14:34:54.484Z,20.90
2019-04-25T14:37:26.327Z,22.77
2019-04-25T14:39:55.305Z,23.67
2019-04-25T14:42:24.491Z,24.03
2019-04-25T14:44:53.271Z,24.07
2019-04-25T14:47:23.139Z,21.47
2019-04-25T14:49:52.008Z,18.37
2019-04-25T14:52:21.229Z,20.43
2019-04-25T14:54:58.746Z,21.67
2019-04-25T14:57:29.814Z,18.13
2019-04-25T15:00:01.854Z,22.13
2019-04-25T15:02:30.717Z,25.13
2019-04-25T15:04:59.153Z,14.73
2019-04-25T15:07:28.108Z,31.50
2019-04-25T15:09:57.379Z,18.80
2019-04-25T15:12:26.849Z,16.93
2019-04-25T15:14:55.684Z,23.10
2019-04-25T15:17:24.179Z,28.83
2019-04-25T15:19:52.617Z,21.20
2019-04-25T15:22:21.105Z,29.33
2019-04-25T15:24:49.533Z,18.30
2019-04-25T15:27:18.334Z,27.33
2019-04-25T15:29:47.133Z,19.20
2019-04-25T15:32:18.825Z,19.73
2019-04-25T15:34:52.973Z,24.07
2019-04-25T15:37:30.642Z,23.77
2019-04-25T15:40:06.925Z,19.50
2019-04-25T15:42:48.174Z,20.00
2019-04-25T15:45:36.500Z,23.67
2019-04-25T15:48:07.270Z,17.13
2019-04-25T15:50:35.748Z,21.07
2019-04-25T15:53:04.356Z,25.53
2019-04-25T15:55:33.246Z,22.90
2019-04-25T15:58:01.731Z,18.87
2019-04-25T16:00:37.140Z,18.73
2019-04-25T16:03:06.830Z,23.03
2019-04-25T16:05:35.889Z,18.60
2019-04-25T16:08:05.395Z,14.57
2019-04-25T16:10:34.032Z,21.90
2019-04-25T16:13:03.584Z,30.63
2019-04-25T16:15:32.024Z,21.13
2019-04-25T16:18:01.289Z,19.07
2019-04-25T16:20:30.113Z,26.27
2019-04-25T16:22:58.714Z,24.30
2019-04-25T16:25:27.504Z,21.73
2019-04-25T16:27:55.934Z,18.83
2019-04-25T16:30:28.422Z,23.07
2019-04-25T16:32:57.170Z,17.73
2019-04-25T16:35:25.677Z,21.80
2019-04-25T16:37:54.108Z,22.00
2019-04-25T16:40:23.002Z,25.30
2019-04-25T16:42:51.794Z,21.90
2019-04-25T16:45:20.397Z,20.60
2019-04-25T16:47:48.817Z,26.67
2019-04-25T16:50:17.881Z,28.00
2019-04-25T16:52:46.401Z,24.47
2019-04-25T16:55:15.389Z,19.40
2019-04-25T16:57:43.808Z,23.93
2019-04-25T17:00:27.760Z,19.97
2019-04-25T17:02:56.204Z,22.97
2019-04-25T17:05:25.709Z,25.70
2019-04-25T17:07:54.980Z,15.40
2019-04-25T17:10:23.569Z,24.57
2019-04-25T17:12:52.452Z,26.17
2019-04-25T17:15:30.578Z,31.27
2019-04-25T17:18:20.106Z,31.67
2019-04-25T17:20:54.394Z,22.70
2019-04-25T17:23:22.924Z,26.73
2019-04-25T17:25:51.414Z,29.10
2019-04-25T17:28:19.861Z,28.83
2019-04-25T17:30:51.457Z,26.53
2019-04-25T17:33:51.316Z,27.97
2019-04-25T17:36:25.881Z,27.93
2019-04-25T17:39:25.901Z,24.87
2019-04-25T17:41:54.410Z,26.50
2019-04-25T17:44:22.827Z,31.50
2019-04-25T17:46:51.433Z,29.60
2019-04-25T17:49:19.854Z,29.40
2019-04-25T17:51:48.365Z,23.00
2019-04-25T17:54:18.464Z,26.13
2019-04-25T17:56:47.168Z,26.57
2019-04-25T17:59:15.599Z,28.67
2019-04-25T18:01:44.274Z,29.13
2019-04-25T18:04:12.808Z,27.23
2019-04-25T18:06:42.020Z,25.57
2019-04-25T18:09:10.641Z,25.13
2019-04-25T18:11:40.119Z,26.90
2019-04-25T18:14:08.930Z,26.30
2019-04-25T18:16:42.323Z,28.97
2019-04-25T18:19:34.051Z,24.20
2019-04-25T18:22:10.752Z,30.17
2019-04-25T18:24:56.786Z,28.50
2019-04-25T18:27:31.612Z,31.67
2019-04-25T18:30:00.052Z,33.63
2019-04-25T18:32:32.027Z,25.57
2019-04-25T18:35:18.875Z,26.07
2019-04-25T18:38:02.890Z,23.37
2019-04-25T18:40:56.706Z,23.87
2019-04-25T18:43:28.581Z,24.17
2019-04-25T18:46:01.673Z,21.57
2019-04-25T18:48:30.381Z,28.63
2019-04-25T18:50:58.895Z,23.50
2019-04-25T18:53:49.072Z,33.80
2019-04-25T18:56:31.669Z,26.20
2019-04-25T18:59:18.020Z,25.63
2019-04-25T19:02:24.379Z,21.50
2019-04-25T19:05:02.458Z,27.07
2019-04-25T19:07:32.036Z,28.93
2019-04-25T19:10:01.644Z,20.07
2019-04-25T19:12:31.351Z,25.57
2019-04-25T19:15:01.038Z,29.13
2019-04-25T19:17:30.629Z,23.90
2019-04-25T19:20:00.907Z,27.50
2019-04-25T19:22:31.238Z,24.30
2019-04-25T19:25:00.908Z,25.27
2019-04-25T19:27:30.590Z,23.03
2019-04-25T19:30:00.324Z,30.93
2019-04-25T19:32:31.078Z,25.33
2019-04-25T19:35:00.832Z,26.50
2019-04-25T19:37:30.367Z,32.23
2019-04-25T19:40:21.357Z,27.37
2019-04-25T19:42:54.079Z,30.23
2019-04-25T19:45:23.982Z,24.97
2019-04-25T19:47:53.818Z,2.53
2019-04-25T19:50:23.644Z,1.57
2019-04-25T19:52:53.417Z,1.27
2019-04-25T19:55:23.131Z,0.70
2019-04-25T19:57:53.328Z,3.20
2019-04-25T20:00:23.287Z,2.57
2019-04-25T20:03:12.915Z,1.10
2019-04-25T20:05:49.078Z,0.63
2019-04-25T20:08:46.840Z,1.80
2019-04-25T20:11:23.329Z,1.13
2019-04-25T20:13:53.419Z,0.40
2019-04-25T20:16:23.528Z,3.80
2019-04-25T20:18:53.954Z,2.33
2019-04-25T20:21:23.754Z,2.50
2019-04-25T20:23:54.382Z,0.53
2019-04-25T20:26:24.292Z,0.97
2019-04-25T20:28:53.893Z,1.80
2019-04-25T20:31:23.764Z,1.73
2019-04-25T20:34:04.193Z,0.37
2019-04-25T20:36:24.748Z,1.13
2019-04-25T20:38:55.386Z,1.10
2019-04-25T20:41:25.057Z,3.57
2019-04-25T20:43:55.698Z,2.47
2019-04-25T20:46:26.190Z,1.90
2019-04-25T20:48:56.414Z,4.93
2019-04-25T20:51:27.587Z,3.20
2019-04-25T20:53:57.107Z,4.37
2019-04-25T20:56:25.947Z,3.40
2019-04-25T20:58:55.565Z,3.70
2019-04-25T21:01:24.502Z,0.60
2019-04-25T21:03:54.092Z,1.07
2019-04-25T21:06:27.937Z,2.03
2019-04-25T21:08:57.547Z,0.93
2019-04-25T21:11:26.192Z,6.83
2019-04-25T21:14:12.541Z,1.13
2019-04-25T21:16:58.568Z,3.53
2019-04-25T21:19:29.775Z,3.17
2019-04-25T21:21:58.723Z,0.70
2019-04-25T21:24:27.326Z,2.13
2019-04-25T21:26:55.865Z,1.87
2019-04-25T21:29:25.164Z,0.60
2019-04-25T21:31:54.634Z,1.43
2019-04-25T21:34:27.028Z,1.20
2019-04-25T21:36:53.662Z,0.60
2019-04-25T21:39:38.082Z,1.10
2019-04-25T21:42:23.498Z,1.70
2019-04-25T21:44:52.826Z,4.07
2019-04-25T21:47:21.800Z,1.10
2019-04-25T21:49:51.115Z,1.53
2019-04-25T21:52:21.073Z,0.33
2019-04-25T21:54:50.236Z,1.13
2019-04-25T21:57:18.930Z,1.37
2019-04-25T21:59:58.828Z,1.10
2019-04-25T22:02:18.636Z,0.93
2019-04-25T22:04:47.474Z,3.93
2019-04-25T22:07:16.917Z,0.40
2019-04-25T22:09:46.132Z,1.57
2019-04-25T22:12:14.933Z,1.07
2019-04-25T22:14:43.370Z,0.70
2019-04-25T22:17:12.554Z,0.53
2019-04-25T22:19:41.344Z,0.60
2019-04-25T22:22:10.376Z,1.73
2019-04-25T22:24:38.984Z,0.80
2019-04-25T22:27:11.118Z,2.50
2019-04-25T22:29:42.421Z,0.53
2019-04-25T22:32:27.474Z,0.20
2019-04-25T22:35:14.199Z,1.97
2019-04-25T22:37:43.350Z,2.00
2019-04-25T22:40:11.888Z,0.67
2019-04-25T22:42:40.750Z,0.20
2019-04-25T22:45:09.529Z,0.20
2019-04-25T22:47:38.069Z,1.30
2019-04-25T22:50:06.716Z,0.10
2019-04-25T22:52:35.694Z,0.27
2019-04-25T22:55:04.746Z,0.60
2019-04-25T22:57:33.784Z,0.37
2019-04-25T23:00:03.237Z,0.93
2019-04-25T23:02:38.390Z,1.10
2019-04-25T23:05:17.208Z,1.23
2019-04-25T23:07:45.776Z,2.07
2019-04-25T23:10:14.782Z,0.47
2019-04-25T23:12:43.316Z,0.40
2019-04-25T23:15:13.715Z,2.40
2019-04-25T23:17:42.157Z,0.37
2019-04-25T23:20:11.731Z,0.60
2019-04-25T23:22:40.228Z,0.43
2019-04-25T23:25:12.024Z,0.97
2019-04-25T23:28:01.718Z,2.30
2019-04-25T23:30:40.989Z,3.23
2019-04-25T23:33:10.532Z,1.27
2019-04-25T23:35:39.428Z,0.47
2019-04-25T23:38:09.293Z,2.03
2019-04-25T23:40:38.522Z,0.27
2019-04-25T23:43:07.541Z,0.33
2019-04-25T23:45:36.384Z,0.40
2019-04-25T23:48:06.069Z,0.30
2019-04-25T23:50:36.094Z,0.87
2019-04-25T23:53:04.593Z,0.70
2019-04-25T23:55:33.340Z,0.30
2019-04-25T23:58:01.768Z,0.20
